Terminal Aerodrome Forecast
Issued by NWS Tallahassee, FL

Current Version | Previous Version | Text Only | Print | Product List | Glossary On
Versions: 1 2 3 4 5 6 7 8 9 10 11 12
000
FTUS42 KTAE 281720
TAFTLH
TAF
KTLH 281720Z 2818/2918 22007KT P6SM FEW060
     FM282200 22008KT P6SM VCTS SCT050CB
     FM290200 VRB02KT P6SM SCT250
     FM291500 24005KT P6SM FEW250=

USA.gov is the U.S. government's official web portal to all federal, state and local government web resources and services.